Time;durP1;ratioP1;P1;durP2;ratioP2;P2;SDS_P1;SDS_P2;PMS_P1;PMS_P2;Temp;Humidity;BMP_temperature;BMP_pressure;BME280_temperature;BME280_humidity;BME280_pressure;Samples;Min_cycle;Max_cycle;Signal;HPM_P1;HPM_P2
2022/09/24 00:01:30;;;;;;;6.93;6.10;;;21.80;51.70;;;;;;4997834;28;20443;-81
2022/09/24 00:04:00;;;;;;;8.00;6.63;;;21.70;51.50;;;;;;4995019;28;20441;-79
2022/09/24 00:06:30;;;;;;;7.07;6.37;;;21.70;51.70;;;;;;4993517;28;20461;-79
2022/09/24 00:08:58;;;;;;;7.80;6.70;;;21.70;51.80;;;;;;4993849;28;20449;-79
2022/09/24 00:11:27;;;;;;;7.63;6.20;;;21.70;51.80;;;;;;4994549;28;20504;-81
2022/09/24 00:13:56;;;;;;;6.57;5.90;;;21.70;51.70;;;;;;4995112;28;20457;-81
2022/09/24 00:16:25;;;;;;;7.57;6.00;;;21.70;51.70;;;;;;4978651;28;20442;-81
2022/09/24 00:18:53;;;;;;;6.90;6.20;;;21.70;51.70;;;;;;4978872;28;20438;-81
2022/09/24 00:21:22;;;;;;;7.00;5.93;;;21.70;51.80;;;;;;4977423;28;20466;-81
2022/09/24 00:23:52;;;;;;;6.37;5.87;;;21.80;51.90;;;;;;4978023;28;20427;-81
2022/09/24 00:29:06;;;;;;;5.90;5.30;;;21.70;51.70;;;;;;4992949;28;20433;-78
2022/09/24 00:31:34;;;;;;;6.00;5.40;;;21.70;51.70;;;;;;4994066;28;20441;-79
2022/09/24 00:34:02;;;;;;;5.80;5.30;;;21.70;51.80;;;;;;4993562;28;20437;-79
2022/09/24 00:36:30;;;;;;;6.20;5.60;;;21.60;51.80;;;;;;4993388;28;20480;-80
2022/09/24 00:39:00;;;;;;;6.30;5.27;;;21.60;51.80;;;;;;4993854;28;20472;-80
2022/09/24 00:41:29;;;;;;;5.80;5.20;;;21.60;51.90;;;;;;4986327;28;20455;-80
2022/09/24 00:43:57;;;;;;;6.57;5.87;;;21.70;51.80;;;;;;4983343;28;20456;-80
2022/09/24 00:46:26;;;;;;;5.87;5.37;;;21.70;51.80;;;;;;4987391;28;20460;-81
2022/09/24 00:48:56;;;;;;;7.83;4.97;;;21.70;51.90;;;;;;4994596;28;20477;-80
2022/09/24 00:51:25;;;;;;;6.03;5.33;;;21.60;51.60;;;;;;4998132;28;20461;-81
2022/09/24 00:53:54;;;;;;;5.60;5.10;;;21.60;51.80;;;;;;4998474;28;20440;-81
2022/09/24 00:56:24;;;;;;;5.87;5.30;;;21.60;51.80;;;;;;5013993;28;20440;-81
2022/09/24 00:58:53;;;;;;;6.13;5.53;;;21.60;51.90;;;;;;5007949;28;20452;-82
2022/09/24 01:01:22;;;;;;;4.97;4.47;;;21.60;51.90;;;;;;5000898;28;20469;-81
2022/09/24 01:03:51;;;;;;;5.77;5.10;;;21.60;52.00;;;;;;4999940;28;20507;-82
2022/09/24 01:06:19;;;;;;;7.93;5.23;;;21.60;51.90;;;;;;4979009;28;20458;-83
2022/09/24 01:08:46;;;;;;;7.53;5.17;;;21.60;52.00;;;;;;4979297;28;20477;-82
2022/09/24 01:11:21;;;;;;;6.00;5.23;;;21.60;51.60;;;;;;4983950;28;20444;-82
2022/09/24 01:13:59;;;;;;;5.90;5.17;;;21.60;52.00;;;;;;4996851;28;20552;-82
2022/09/24 01:16:32;;;;;;;5.53;5.07;;;21.60;52.00;;;;;;4998409;28;20437;-81
2022/09/24 01:19:06;;;;;;;6.07;5.47;;;21.60;51.80;;;;;;5011937;28;20452;-81
2022/09/24 01:21:37;;;;;;;5.23;4.70;;;21.50;51.90;;;;;;4996048;28;20461;-82
2022/09/24 01:24:23;;;;;;;5.60;5.10;;;21.50;51.90;;;;;;4998477;28;20437;-82
2022/09/24 01:26:57;;;;;;;9.37;5.40;;;21.50;51.90;;;;;;5015248;28;20442;-82
2022/09/24 01:29:32;;;;;;;5.37;4.50;;;21.50;52.10;;;;;;5024803;28;20475;-83
2022/09/24 01:32:04;;;;;;;5.80;4.83;;;21.40;51.80;;;;;;5024437;28;20421;-82
2022/09/24 01:34:36;;;;;;;5.47;4.97;;;21.40;51.90;;;;;;5024545;28;20479;-82
2022/09/24 01:37:04;;;;;;;6.43;4.90;;;21.40;52.10;;;;;;5010127;28;20434;-81
2022/09/24 01:39:32;;;;;;;5.60;5.10;;;21.40;52.10;;;;;;5001358;28;20461;-83
2022/09/24 01:42:00;;;;;;;6.27;4.93;;;21.40;52.00;;;;;;4995071;28;20433;-81
2022/09/24 01:44:28;;;;;;;5.27;4.77;;;21.40;52.10;;;;;;5024324;28;20440;-81
2022/09/24 01:46:58;;;;;;;5.53;5.03;;;21.40;52.10;;;;;;5023064;28;20447;-82
2022/09/24 01:49:27;;;;;;;5.40;4.90;;;21.40;52.10;;;;;;5023930;28;20480;-82
2022/09/24 01:51:57;;;;;;;5.30;4.90;;;21.40;52.00;;;;;;5023527;28;20432;-83
2022/09/24 01:54:27;;;;;;;6.20;5.00;;;21.40;52.20;;;;;;5014203;28;20457;-83
2022/09/24 01:56:57;;;;;;;5.30;4.80;;;21.40;52.00;;;;;;5009229;28;20452;-81
2022/09/24 01:59:27;;;;;;;5.83;4.70;;;21.40;52.20;;;;;;4997018;28;20444;-81
2022/09/24 02:01:59;;;;;;;6.33;4.80;;;21.40;52.10;;;;;;5000153;28;20504;-82
2022/09/24 02:04:27;;;;;;;5.20;4.80;;;21.40;52.10;;;;;;4994773;28;20433;-82
2022/09/24 02:06:56;;;;;;;5.20;4.70;;;21.30;52.00;;;;;;5000866;28;20461;-83
2022/09/24 02:09:29;;;;;;;4.90;4.50;;;21.30;52.20;;;;;;4983571;28;20487;-83
2022/09/24 02:11:57;;;;;;;6.10;5.40;;;21.30;52.20;;;;;;5000605;28;20453;-81
2022/09/24 02:14:26;;;;;;;6.73;4.87;;;21.30;51.90;;;;;;5001442;28;20461;-82
2022/09/24 02:16:53;;;;;;;5.23;4.73;;;21.40;52.20;;;;;;5000732;28;20460;-81
2022/09/24 02:19:24;;;;;;;6.63;4.93;;;21.30;52.00;;;;;;4996144;28;20446;-82
2022/09/24 02:21:52;;;;;;;5.23;4.73;;;21.30;52.10;;;;;;4994890;28;20457;-81
2022/09/24 02:24:22;;;;;;;6.67;5.10;;;21.30;52.20;;;;;;5000803;28;20448;-81
2022/09/24 02:26:50;;;;;;;5.50;4.90;;;21.30;52.10;;;;;;4996052;28;20431;-81
2022/09/24 02:29:18;;;;;;;5.40;4.77;;;21.30;52.30;;;;;;4996243;28;20473;-81
2022/09/24 02:31:47;;;;;;;5.40;4.87;;;21.30;52.20;;;;;;4995753;28;20441;-81
2022/09/24 02:34:23;;;;;;;5.30;4.37;;;21.30;52.20;;;;;;4995902;28;20447;-80
2022/09/24 02:36:54;;;;;;;4.73;4.30;;;21.20;52.10;;;;;;4995234;28;20441;-81
2022/09/24 02:39:22;;;;;;;6.70;4.93;;;21.20;52.10;;;;;;4993642;28;20464;-81
2022/09/24 02:41:51;;;;;;;8.30;6.47;;;21.20;52.30;;;;;;4991778;28;20469;-81
2022/09/24 02:44:19;;;;;;;10.17;7.23;;;21.20;52.20;;;;;;4994016;28;20457;-81
2022/09/24 02:46:47;;;;;;;8.40;7.10;;;21.30;52.30;;;;;;4995191;28;20457;-81
2022/09/24 02:49:15;;;;;;;12.50;8.73;;;21.20;52.00;;;;;;4996558;28;20563;-81
2022/09/24 02:51:43;;;;;;;10.10;8.30;;;21.20;52.30;;;;;;4990882;28;20454;-81
2022/09/24 02:54:12;;;;;;;16.73;9.13;;;21.20;52.30;;;;;;4995090;28;20464;-81
2022/09/24 02:56:40;;;;;;;15.73;9.73;;;21.20;52.40;;;;;;4999067;28;20461;-81
2022/09/24 02:59:08;;;;;;;15.07;10.67;;;21.20;52.20;;;;;;4986590;28;20453;-81
2022/09/24 03:01:37;;;;;;;13.93;9.30;;;21.20;52.20;;;;;;4998845;28;20448;-81
2022/09/24 03:04:05;;;;;;;12.73;9.33;;;21.20;52.40;;;;;;4990179;28;20489;-80
2022/09/24 03:06:33;;;;;;;13.77;9.50;;;21.30;52.40;;;;;;4986497;28;20449;-81
2022/09/24 03:09:02;;;;;;;13.40;9.87;;;21.20;52.00;;;;;;4988749;28;20470;-82
2022/09/24 03:11:32;;;;;;;12.83;9.23;;;21.20;52.20;;;;;;4995443;28;20477;-81
2022/09/24 03:14:00;;;;;;;14.43;10.10;;;21.20;52.20;;;;;;4993435;28;20440;-82
2022/09/24 03:16:28;;;;;;;12.60;9.90;;;21.20;52.30;;;;;;4982888;28;20458;-82
2022/09/24 03:18:57;;;;;;;13.70;10.80;;;21.20;52.20;;;;;;4983446;28;20460;-81
2022/09/24 03:21:25;;;;;;;12.73;10.10;;;21.10;52.30;;;;;;4994807;28;20468;-81
2022/09/24 03:23:53;;;;;;;11.80;9.63;;;21.20;52.70;;;;;;4983835;28;20472;-81
2022/09/24 03:26:21;;;;;;;15.40;10.47;;;21.20;52.30;;;;;;4990054;28;20465;-80
2022/09/24 03:28:50;;;;;;;14.20;10.27;;;21.10;52.30;;;;;;4989110;28;20476;-82
2022/09/24 03:31:18;;;;;;;15.23;10.97;;;21.10;52.40;;;;;;4991990;28;21003;-82
2022/09/24 03:33:46;;;;;;;13.07;10.20;;;21.20;52.50;;;;;;4995312;28;20514;-82
2022/09/24 03:36:15;;;;;;;14.57;11.30;;;21.10;52.30;;;;;;4988703;28;20457;-82
2022/09/24 03:38:44;;;;;;;14.30;10.70;;;21.10;52.40;;;;;;4989673;28;20465;-81
2022/09/24 03:41:13;;;;;;;17.40;10.77;;;21.10;52.40;;;;;;4991475;28;20474;-82
2022/09/24 03:43:41;;;;;;;18.60;10.33;;;21.10;52.60;;;;;;4986699;28;20470;-82
2022/09/24 03:46:11;;;;;;;15.10;9.90;;;21.20;52.40;;;;;;4991042;28;20457;-82
2022/09/24 03:48:39;;;;;;;13.93;10.73;;;21.10;52.40;;;;;;4991517;28;20457;-82
2022/09/24 03:51:10;;;;;;;14.40;10.87;;;21.20;52.50;;;;;;4991428;28;20476;-84
2022/09/24 03:53:38;;;;;;;16.73;10.60;;;21.10;52.50;;;;;;4993310;28;20752;-82
2022/09/24 03:56:07;;;;;;;14.63;10.67;;;21.10;52.40;;;;;;4992694;28;20457;-82
2022/09/24 03:58:36;;;;;;;13.63;10.00;;;21.10;52.50;;;;;;4989454;28;20460;-82
2022/09/24 04:01:04;;;;;;;13.50;10.20;;;21.10;52.40;;;;;;4995595;28;20469;-83
2022/09/24 04:03:34;;;;;;;12.77;9.90;;;21.10;52.50;;;;;;4989733;28;20454;-82
2022/09/24 04:06:02;;;;;;;13.53;10.20;;;21.10;52.80;;;;;;4996941;28;20449;-83
2022/09/24 04:08:30;;;;;;;11.60;9.40;;;21.10;52.60;;;;;;4998931;28;20433;-83
2022/09/24 04:10:58;;;;;;;12.87;10.23;;;21.10;52.70;;;;;;4992279;28;20482;-82
2022/09/24 04:13:26;;;;;;;14.43;10.60;;;21.10;52.40;;;;;;5005549;28;20422;-82
2022/09/24 04:15:54;;;;;;;14.23;10.00;;;21.10;52.60;;;;;;5001174;28;20829;-83
2022/09/24 04:18:22;;;;;;;14.77;9.90;;;21.10;52.60;;;;;;5003377;28;20441;-82
2022/09/24 04:20:51;;;;;;;13.67;9.73;;;21.10;52.70;;;;;;4994302;28;20472;-82
2022/09/24 04:23:19;;;;;;;12.30;8.80;;;21.10;52.50;;;;;;4994576;28;20441;-80
2022/09/24 04:25:47;;;;;;;11.43;9.07;;;21.00;52.60;;;;;;4996164;28;20460;-81
2022/09/24 04:28:15;;;;;;;12.87;9.43;;;21.10;52.70;;;;;;4991027;28;20452;-81
2022/09/24 04:30:43;;;;;;;11.30;9.20;;;21.00;52.60;;;;;;4987436;28;20480;-81
2022/09/24 04:33:11;;;;;;;11.03;8.87;;;21.10;52.70;;;;;;4990449;28;20464;-81
2022/09/24 04:35:39;;;;;;;11.73;9.33;;;21.10;52.70;;;;;;4992440;28;20453;-82
2022/09/24 04:38:08;;;;;;;14.30;9.00;;;21.10;52.80;;;;;;4983708;28;20460;-81
2022/09/24 04:40:36;;;;;;;12.07;8.63;;;21.10;52.70;;;;;;4981460;28;20443;-81
2022/09/24 04:43:05;;;;;;;11.70;8.87;;;21.10;52.50;;;;;;4989259;28;20477;-81
2022/09/24 04:45:32;;;;;;;12.17;9.20;;;21.10;52.80;;;;;;4991780;28;20435;-82
2022/09/24 04:48:01;;;;;;;9.60;8.17;;;21.10;52.60;;;;;;4985385;28;20461;-81
2022/09/24 04:50:32;;;;;;;10.50;8.30;;;21.10;52.60;;;;;;4991286;28;20473;-81
2022/09/24 04:53:00;;;;;;;10.53;8.53;;;21.10;52.80;;;;;;4992072;28;20462;-81
2022/09/24 04:55:30;;;;;;;9.60;7.87;;;21.10;52.60;;;;;;4993604;28;20461;-84
2022/09/24 04:57:58;;;;;;;11.47;8.47;;;21.00;52.70;;;;;;4992852;28;20445;-81
2022/09/24 05:00:26;;;;;;;10.60;8.60;;;21.00;52.70;;;;;;5007803;28;20475;-80
2022/09/24 05:02:58;;;;;;;11.47;8.37;;;21.10;52.60;;;;;;5005649;28;20449;-81
2022/09/24 05:05:26;;;;;;;10.83;8.23;;;21.00;52.60;;;;;;4993650;28;20434;-80
2022/09/24 05:07:55;;;;;;;8.50;7.17;;;21.00;52.70;;;;;;5001177;28;20488;-81
2022/09/24 05:10:25;;;;;;;9.83;8.53;;;21.00;52.80;;;;;;5007915;28;20507;-81
2022/09/24 05:12:54;;;;;;;9.90;7.87;;;21.00;52.80;;;;;;4994158;28;20470;-81
2022/09/24 05:15:22;;;;;;;10.67;8.60;;;21.10;53.00;;;;;;5004339;28;20444;-81
2022/09/24 05:17:50;;;;;;;10.87;8.23;;;21.00;52.60;;;;;;4992074;28;20436;-80
2022/09/24 05:20:17;;;;;;;9.80;8.33;;;21.00;52.70;;;;;;5010254;28;20465;-80
2022/09/24 05:22:46;;;;;;;9.33;8.33;;;21.00;52.90;;;;;;4999646;28;20432;-80
2022/09/24 05:25:14;;;;;;;10.70;8.40;;;21.00;53.00;;;;;;5005844;28;20548;-82
2022/09/24 05:27:44;;;;;;;10.97;8.07;;;21.00;52.80;;;;;;5005753;28;20565;-83
2022/09/24 05:30:14;;;;;;;12.70;8.50;;;21.00;53.00;;;;;;4996245;28;20481;-82
2022/09/24 05:32:42;;;;;;;9.20;7.53;;;21.00;53.00;;;;;;4996510;28;20457;-82
2022/09/24 05:35:11;;;;;;;11.60;7.53;;;21.00;53.00;;;;;;4997286;28;20450;-82
2022/09/24 05:37:39;;;;;;;10.30;8.50;;;21.00;52.90;;;;;;4986796;28;20452;-83
2022/09/24 05:42:50;;;;;;;10.50;8.00;;;21.00;52.90;;;;;;4995851;28;20528;-83
2022/09/24 05:45:19;;;;;;;10.43;8.10;;;21.00;53.00;;;;;;4993633;28;20982;-82
2022/09/24 05:47:47;;;;;;;11.40;8.37;;;21.00;53.10;;;;;;4987968;28;20481;-82
2022/09/24 05:50:15;;;;;;;10.70;8.10;;;21.00;53.10;;;;;;4991549;28;20478;-83
2022/09/24 05:52:43;;;;;;;9.93;6.93;;;21.00;52.90;;;;;;4990996;28;20453;-82
2022/09/24 05:55:11;;;;;;;7.90;7.10;;;20.90;53.70;;;;;;4994371;28;20450;-82
2022/09/24 05:57:39;;;;;;;10.47;7.80;;;20.90;52.90;;;;;;4989656;28;20449;-83
2022/09/24 06:00:07;;;;;;;8.77;7.40;;;21.00;53.20;;;;;;4994909;28;20448;-82
2022/09/24 06:02:37;;;;;;;8.93;7.40;;;21.00;53.30;;;;;;4999064;28;20464;-81
2022/09/24 06:05:06;;;;;;;11.70;8.33;;;21.00;53.00;;;;;;4998669;28;20453;-82
2022/09/24 06:07:35;;;;;;;8.90;7.70;;;21.00;53.00;;;;;;5002322;28;20442;-82
2022/09/24 06:10:04;;;;;;;9.17;7.60;;;21.00;53.00;;;;;;5001950;28;20483;-82
2022/09/24 06:12:33;;;;;;;8.27;6.60;;;21.00;53.10;;;;;;5000585;28;20461;-82
2022/09/24 06:15:02;;;;;;;7.57;6.50;;;21.00;53.50;;;;;;4997524;28;20489;-83
2022/09/24 06:17:31;;;;;;;8.60;7.07;;;21.00;53.20;;;;;;4999906;28;20464;-84
2022/09/24 06:20:00;;;;;;;8.20;6.67;;;21.10;53.30;;;;;;4997402;28;20564;-83
2022/09/24 06:22:28;;;;;;;7.33;6.40;;;21.10;52.90;;;;;;4995252;28;20461;-82
2022/09/24 06:24:56;;;;;;;8.43;6.80;;;21.10;53.00;;;;;;5001505;28;20461;-82
2022/09/24 06:27:25;;;;;;;7.60;6.33;;;21.10;53.10;;;;;;4995506;28;20461;-82
2022/09/24 06:29:53;;;;;;;9.50;6.93;;;21.10;53.10;;;;;;4998803;28;20478;-82
2022/09/24 06:32:23;;;;;;;7.33;6.33;;;21.10;53.20;;;;;;4997660;28;20457;-82
2022/09/24 06:34:51;;;;;;;8.90;6.33;;;21.20;52.90;;;;;;5000683;28;20440;-83
2022/09/24 06:37:26;;;;;;;7.30;6.17;;;21.10;52.80;;;;;;4996835;28;20467;-82
2022/09/24 06:39:55;;;;;;;6.80;6.10;;;21.10;52.80;;;;;;4998178;28;20481;-82
2022/09/24 06:42:23;;;;;;;7.07;6.37;;;21.10;53.20;;;;;;5003036;28;20434;-82
2022/09/24 06:44:51;;;;;;;6.90;6.00;;;21.10;53.00;;;;;;4994798;28;20464;-83
2022/09/24 06:47:19;;;;;;;7.60;6.13;;;21.20;53.10;;;;;;4996550;28;20464;-82
2022/09/24 06:49:49;;;;;;;7.90;6.17;;;21.20;52.80;;;;;;4996276;28;20568;-83
2022/09/24 06:52:17;;;;;;;7.03;5.77;;;21.20;53.40;;;;;;5002497;28;20476;-83
2022/09/24 06:54:46;;;;;;;8.30;6.20;;;21.20;52.70;;;;;;4997882;28;20531;-83
2022/09/24 06:57:14;;;;;;;6.13;5.53;;;21.20;52.90;;;;;;4999961;28;20453;-82
2022/09/24 06:59:42;;;;;;;8.97;5.90;;;21.30;53.20;;;;;;5002458;28;20461;-81
2022/09/24 07:02:10;;;;;;;6.20;5.60;;;21.30;53.10;;;;;;4999237;28;20449;-83
2022/09/24 07:04:38;;;;;;;6.00;5.40;;;21.30;52.70;;;;;;4988450;28;20505;-82
2022/09/24 07:09:53;;;;;;;6.53;5.80;;;21.30;52.80;;;;;;4993502;28;20501;-83
2022/09/24 07:12:21;;;;;;;7.20;5.50;;;21.30;52.90;;;;;;4990763;28;20473;-82
2022/09/24 07:14:49;;;;;;;6.20;5.53;;;21.40;53.10;;;;;;5002877;28;20440;-82
2022/09/24 07:17:17;;;;;;;7.10;6.10;;;21.40;52.70;;;;;;4991107;28;20460;-83
2022/09/24 07:19:45;;;;;;;6.20;5.60;;;21.40;52.90;;;;;;4989880;28;20456;-83
2022/09/24 07:22:13;;;;;;;6.57;5.50;;;21.40;52.90;;;;;;4995445;28;21227;-82
2022/09/24 07:24:41;;;;;;;6.13;5.53;;;21.40;52.90;;;;;;4993059;28;20453;-81
2022/09/24 07:27:10;;;;;;;7.03;6.07;;;21.40;52.90;;;;;;4998851;28;20450;-81
2022/09/24 07:29:38;;;;;;;6.10;5.50;;;21.40;52.90;;;;;;4991769;28;20480;-82
2022/09/24 07:32:06;;;;;;;5.90;5.30;;;21.40;53.10;;;;;;4993592;28;20474;-81
2022/09/24 07:34:34;;;;;;;5.83;5.30;;;21.40;52.90;;;;;;4993727;28;20458;-82
2022/09/24 07:37:02;;;;;;;9.10;6.00;;;21.50;53.10;;;;;;4999417;28;20407;-82
2022/09/24 07:39:30;;;;;;;7.10;6.40;;;21.50;53.00;;;;;;5002913;28;20488;-82
2022/09/24 07:41:59;;;;;;;6.30;5.20;;;21.50;52.80;;;;;;4985936;28;20446;-82
2022/09/24 07:44:31;;;;;;;6.10;5.40;;;21.50;52.70;;;;;;4994946;28;20431;-83
2022/09/24 07:46:59;;;;;;;5.97;5.37;;;21.50;52.80;;;;;;5002812;28;20441;-83
2022/09/24 07:49:30;;;;;;;5.50;5.00;;;21.50;53.00;;;;;;5015121;28;20472;-83
2022/09/24 07:51:59;;;;;;;6.23;5.60;;;21.50;53.00;;;;;;5022532;28;20472;-84
2022/09/24 07:54:28;;;;;;;6.60;5.30;;;21.50;53.00;;;;;;5004026;28;20452;-84
2022/09/24 07:56:57;;;;;;;5.87;5.33;;;21.60;52.90;;;;;;5003931;28;20449;-84
2022/09/24 07:59:25;;;;;;;7.73;6.00;;;21.60;53.20;;;;;;5003924;28;20449;-83
2022/09/24 08:01:54;;;;;;;6.60;5.60;;;21.60;53.10;;;;;;4995452;28;20468;-84
2022/09/24 08:04:22;;;;;;;5.70;5.20;;;21.60;52.80;;;;;;4995156;28;20449;-83
2022/09/24 08:06:50;;;;;;;5.90;5.40;;;21.50;52.90;;;;;;5003454;28;20455;-83
2022/09/24 08:09:18;;;;;;;6.43;5.73;;;21.50;52.90;;;;;;5002482;28;20453;-83
2022/09/24 08:11:46;;;;;;;7.20;6.07;;;21.50;53.00;;;;;;4982937;28;20466;-83
2022/09/24 08:14:15;;;;;;;7.93;6.13;;;21.50;53.10;;;;;;5008528;28;20434;-83
2022/09/24 08:16:43;;;;;;;5.50;4.97;;;21.60;53.10;;;;;;5014405;28;20461;-82
2022/09/24 08:19:13;;;;;;;7.03;5.30;;;21.60;53.10;;;;;;5004393;28;20457;-83
2022/09/24 08:21:41;;;;;;;6.00;5.50;;;21.60;53.30;;;;;;5007297;28;20437;-84
2022/09/24 08:24:09;;;;;;;6.53;5.83;;;21.60;52.90;;;;;;5002177;28;20845;-83
2022/09/24 08:26:37;;;;;;;5.93;5.33;;;21.60;52.90;;;;;;4994125;28;20449;-83
2022/09/24 08:29:05;;;;;;;5.90;5.13;;;21.60;53.10;;;;;;4999293;28;20476;-83
2022/09/24 08:31:34;;;;;;;6.67;5.57;;;21.70;53.00;;;;;;5000802;28;20476;-83
2022/09/24 08:34:02;;;;;;;7.50;5.30;;;21.70;53.20;;;;;;5001013;28;20445;-83
2022/09/24 08:36:31;;;;;;;5.27;4.77;;;21.70;52.80;;;;;;5001827;28;20450;-83
2022/09/24 08:38:59;;;;;;;5.60;5.00;;;21.80;53.10;;;;;;5018103;28;20447;-82
2022/09/24 08:41:34;;;;;;;6.43;5.10;;;21.80;52.80;;;;;;5018098;28;20439;-83
2022/09/24 08:44:03;;;;;;;5.87;5.37;;;21.80;52.80;;;;;;4991879;28;20450;-83
2022/09/24 08:49:30;;;;;;;6.00;5.20;;;22.00;52.90;;;;;;4988287;28;20444;-82
2022/09/24 08:52:03;;;;;;;6.90;5.63;;;22.10;52.70;;;;;;5001390;28;20477;-83
2022/09/24 08:54:32;;;;;;;5.10;4.70;;;22.10;52.50;;;;;;5000165;28;20467;-83
2022/09/24 08:57:00;;;;;;;5.10;4.63;;;22.10;52.40;;;;;;5000166;28;20428;-84
2022/09/24 08:59:30;;;;;;;5.50;5.00;;;22.10;52.50;;;;;;5000252;28;20465;-83
2022/09/24 09:02:05;;;;;;;7.00;5.23;;;22.10;52.50;;;;;;5000892;28;20426;-83
2022/09/24 09:04:37;;;;;;;5.63;5.03;;;22.10;52.40;;;;;;4996678;28;20431;-83
2022/09/24 09:07:13;;;;;;;7.13;5.40;;;22.20;52.50;;;;;;4996818;28;20460;-83
2022/09/24 09:09:46;;;;;;;7.20;6.00;;;22.20;52.50;;;;;;5000628;28;20540;-83
2022/09/24 09:12:17;;;;;;;5.60;5.10;;;22.10;52.60;;;;;;4997352;28;20479;-82
2022/09/24 09:14:48;;;;;;;6.70;6.00;;;22.20;52.60;;;;;;4998501;28;20449;-83
2022/09/24 09:17:29;;;;;;;5.90;5.30;;;22.20;52.70;;;;;;4995924;28;20450;-82
2022/09/24 09:19:58;;;;;;;5.60;5.10;;;22.30;52.60;;;;;;4979112;28;20470;-82
2022/09/24 09:22:29;;;;;;;6.30;5.17;;;22.30;52.50;;;;;;4982348;28;20441;-83
2022/09/24 09:25:00;;;;;;;5.57;5.07;;;22.30;52.40;;;;;;5000563;28;20459;-84
2022/09/24 09:27:31;;;;;;;6.20;5.60;;;22.30;52.60;;;;;;5013176;28;20463;-83
2022/09/24 09:30:00;;;;;;;5.80;5.20;;;22.30;52.40;;;;;;5011679;28;20458;-82
2022/09/24 09:32:37;;;;;;;5.97;5.40;;;22.30;52.40;;;;;;5001725;28;20469;-82
2022/09/24 09:35:07;;;;;;;5.80;5.27;;;22.40;52.50;;;;;;4993775;28;20429;-83
2022/09/24 09:37:39;;;;;;;6.20;5.60;;;22.30;52.40;;;;;;4985567;28;20420;-81
2022/09/24 09:40:15;;;;;;;6.10;5.50;;;22.30;52.50;;;;;;4985228;28;20448;-83
2022/09/24 09:42:44;;;;;;;6.10;5.47;;;22.30;52.50;;;;;;5009522;28;20427;-83
2022/09/24 09:45:21;;;;;;;5.63;5.13;;;22.30;52.50;;;;;;5006455;28;20441;-82
2022/09/24 09:47:55;;;;;;;5.73;5.20;;;22.30;52.50;;;;;;5002860;28;20431;-82
2022/09/24 09:50:26;;;;;;;6.97;6.27;;;22.30;52.70;;;;;;5002569;28;20540;-82
2022/09/24 09:52:56;;;;;;;6.20;5.60;;;22.40;52.70;;;;;;5001767;28;20499;-83
2022/09/24 09:55:25;;;;;;;6.13;5.53;;;22.40;52.60;;;;;;5002526;28;20411;-80
2022/09/24 09:57:53;;;;;;;6.03;5.00;;;22.40;52.60;;;;;;5002558;28;20456;-81
2022/09/24 10:00:26;;;;;;;13.30;6.20;;;22.40;52.40;;;;;;5000127;28;20500;-81
2022/09/24 10:02:54;;;;;;;7.23;6.10;;;22.40;52.50;;;;;;4998481;28;20441;-82
2022/09/24 10:05:27;;;;;;;6.87;5.47;;;22.50;52.60;;;;;;4999391;28;20438;-83
2022/09/24 10:08:01;;;;;;;5.60;5.10;;;22.50;52.60;;;;;;4999148;28;20441;-82
2022/09/24 10:10:32;;;;;;;6.40;5.70;;;22.50;52.60;;;;;;4993389;28;20567;-81
2022/09/24 10:13:08;;;;;;;6.10;5.50;;;22.50;52.50;;;;;;4997786;28;20477;-83
2022/09/24 10:15:40;;;;;;;6.70;6.10;;;22.50;52.50;;;;;;4995322;28;20487;-81
2022/09/24 10:18:13;;;;;;;6.07;5.43;;;22.60;53.00;;;;;;4998164;28;20430;-80
2022/09/24 10:20:45;;;;;;;5.93;5.30;;;22.60;52.60;;;;;;4993215;28;20999;-81
2022/09/24 10:23:43;;;;;;;8.57;5.77;;;22.60;52.60;;;;;;4988098;28;20533;-79
2022/09/24 10:26:17;;;;;;;6.07;5.37;;;22.80;52.50;;;;;;4980030;28;20452;-80
2022/09/24 10:31:34;;;;;;;6.30;5.70;;;23.10;52.20;;;;;;4979925;28;20470;-80
2022/09/24 10:34:02;;;;;;;7.37;5.80;;;23.10;51.80;;;;;;4986854;28;20477;-80
2022/09/24 10:36:32;;;;;;;6.30;5.70;;;23.10;51.80;;;;;;4994144;28;20461;-81
2022/09/24 10:39:09;;;;;;;6.90;6.20;;;23.10;51.80;;;;;;4995962;28;20462;-81
2022/09/24 10:41:37;;;;;;;6.83;6.23;;;23.10;51.80;;;;;;4984431;28;20461;-79
2022/09/24 10:44:05;;;;;;;6.43;5.83;;;23.10;52.20;;;;;;4990509;28;20476;-81
2022/09/24 10:46:49;;;;;;;8.37;5.80;;;23.10;52.20;;;;;;4987624;28;20454;-81
2022/09/24 10:49:26;;;;;;;5.63;5.13;;;23.20;52.10;;;;;;4984325;28;20530;-81
2022/09/24 10:51:56;;;;;;;6.43;5.60;;;23.20;52.10;;;;;;4998355;28;20447;-81
2022/09/24 10:54:36;;;;;;;7.03;5.40;;;23.30;52.00;;;;;;4979046;28;20474;-81
2022/09/24 10:57:08;;;;;;;5.83;5.30;;;23.30;51.70;;;;;;4985088;28;20520;-80
2022/09/24 10:59:43;;;;;;;6.30;5.70;;;23.30;51.90;;;;;;4983911;28;20525;-81
2022/09/24 11:02:27;;;;;;;6.50;5.90;;;23.30;52.00;;;;;;4990454;28;20453;-81
2022/09/24 11:04:56;;;;;;;6.33;5.73;;;23.20;51.90;;;;;;4994983;28;20436;-83
2022/09/24 11:07:44;;;;;;;10.40;6.50;;;23.10;52.00;;;;;;4986058;28;20465;-81
2022/09/24 11:10:21;;;;;;;6.73;6.00;;;23.20;52.20;;;;;;4997291;28;20477;-83
2022/09/24 11:12:55;;;;;;;6.53;5.93;;;23.10;52.20;;;;;;4997026;28;20491;-83
2022/09/24 11:15:30;;;;;;;7.10;6.10;;;23.00;52.30;;;;;;4988537;28;20440;-83
2022/09/24 11:18:08;;;;;;;6.50;5.90;;;23.00;52.50;;;;;;4991091;28;20444;-83
2022/09/24 11:20:38;;;;;;;6.27;5.67;;;23.00;52.60;;;;;;4988396;28;20447;-84
2022/09/24 11:23:26;;;;;;;6.80;6.10;;;23.00;52.50;;;;;;4995634;28;20454;-80
2022/09/24 11:25:59;;;;;;;7.13;6.20;;;23.10;52.40;;;;;;4993385;28;20480;-81
2022/09/24 11:28:55;;;;;;;6.70;5.60;;;23.00;52.50;;;;;;4990689;28;20453;-81
2022/09/24 11:31:25;;;;;;;6.93;5.90;;;23.10;52.50;;;;;;4982633;28;20459;-80
2022/09/24 11:34:03;;;;;;;6.77;6.17;;;23.00;52.50;;;;;;4987576;28;20477;-80
2022/09/24 11:36:40;;;;;;;6.97;6.10;;;23.00;52.60;;;;;;4993321;28;20531;-80
2022/09/24 11:39:20;;;;;;;7.47;6.20;;;23.00;52.80;;;;;;4998160;28;20455;-81
2022/09/24 11:41:54;;;;;;;6.33;5.80;;;23.00;52.70;;;;;;4996195;28;20449;-80
2022/09/24 11:44:55;;;;;;;7.33;6.60;;;23.00;52.60;;;;;;4993302;28;20453;-80
2022/09/24 11:47:29;;;;;;;8.03;6.10;;;23.10;52.60;;;;;;4946961;28;20468;-78
2022/09/24 11:50:05;;;;;;;7.23;6.50;;;23.10;52.80;;;;;;4988586;28;20508;-79
2022/09/24 11:52:34;;;;;;;6.80;6.10;;;23.10;52.60;;;;;;4988321;28;20448;-79
2022/09/24 11:55:05;;;;;;;6.03;5.50;;;23.10;52.60;;;;;;4999453;28;20444;-79
2022/09/24 11:57:36;;;;;;;7.00;6.10;;;23.20;52.60;;;;;;4981760;28;20797;-80
2022/09/24 12:00:07;;;;;;;6.50;5.87;;;23.20;52.70;;;;;;4985120;28;20473;-80
2022/09/24 12:02:36;;;;;;;5.90;5.40;;;23.20;52.70;;;;;;4989514;28;20428;-80
2022/09/24 12:05:06;;;;;;;9.73;6.00;;;23.10;52.50;;;;;;4985234;28;20431;-80
2022/09/24 12:07:36;;;;;;;8.23;6.50;;;23.10;52.70;;;;;;4995533;28;20457;-80
2022/09/24 12:10:07;;;;;;;6.73;6.13;;;23.10;52.70;;;;;;4987512;28;20477;-81
2022/09/24 12:12:39;;;;;;;6.40;5.80;;;23.10;52.80;;;;;;4988507;28;20460;-80
2022/09/24 12:15:12;;;;;;;7.10;6.40;;;23.20;52.80;;;;;;4998562;28;20451;-82
2022/09/24 12:17:43;;;;;;;7.90;6.37;;;23.20;52.60;;;;;;4998533;28;20459;-80
2022/09/24 12:20:19;;;;;;;7.17;5.87;;;23.20;52.60;;;;;;4990284;28;20474;-79
2022/09/24 12:22:47;;;;;;;6.77;6.07;;;23.20;52.50;;;;;;4997827;28;20414;-80
2022/09/24 12:25:16;;;;;;;6.97;6.27;;;23.20;52.60;;;;;;4998374;28;20475;-79
2022/09/24 12:27:45;;;;;;;6.07;5.47;;;23.20;52.60;;;;;;4997754;28;20454;-79
2022/09/24 12:33:09;;;;;;;6.40;5.73;;;23.20;52.80;;;;;;4996796;28;20444;-79
2022/09/24 12:35:42;;;;;;;6.97;6.00;;;23.10;52.80;;;;;;4997079;28;20424;-80
2022/09/24 12:38:12;;;;;;;6.33;5.67;;;23.10;52.80;;;;;;4988899;28;20428;-80
2022/09/24 12:41:04;;;;;;;6.23;5.67;;;23.10;52.90;;;;;;4999352;28;20446;-80
2022/09/24 12:43:37;;;;;;;5.67;5.20;;;23.10;52.90;;;;;;4987052;28;20457;-80
2022/09/24 12:46:05;;;;;;;7.00;6.30;;;23.10;52.80;;;;;;4993345;28;20432;-80
2022/09/24 12:48:36;;;;;;;6.10;5.60;;;23.10;52.90;;;;;;4993213;28;20449;-80
2022/09/24 12:51:06;;;;;;;6.73;5.60;;;23.10;52.90;;;;;;4998956;28;20456;-80
2022/09/24 12:53:35;;;;;;;6.80;6.10;;;23.10;52.80;;;;;;4989420;28;20427;-80
2022/09/24 12:56:04;;;;;;;6.37;5.70;;;23.10;52.80;;;;;;4992653;28;20429;-79
2022/09/24 12:58:38;;;;;;;6.80;6.10;;;23.10;52.80;;;;;;4996106;28;20441;-79
2022/09/24 13:01:08;;;;;;;6.70;6.10;;;23.20;52.90;;;;;;4986174;28;20520;-79
2022/09/24 13:03:37;;;;;;;6.00;5.40;;;23.20;52.90;;;;;;4997009;28;20445;-79
2022/09/24 13:06:21;;;;;;;5.87;5.27;;;23.20;53.00;;;;;;4991174;28;20439;-80
2022/09/24 13:08:50;;;;;;;6.20;5.40;;;23.20;52.80;;;;;;4997493;28;20426;-83
2022/09/24 13:11:32;;;;;;;6.47;5.87;;;23.20;52.80;;;;;;4985447;28;20488;-81
2022/09/24 13:14:05;;;;;;;9.10;5.60;;;23.20;53.40;;;;;;4991286;28;20510;-79
2022/09/24 13:16:37;;;;;;;6.03;5.50;;;23.20;52.90;;;;;;4986172;28;20462;-79